Menu Sign In Contact FAQ
Banner
Welcome to our forums

Ad Hoc fly-ins

I would be up for a day out in say Alderney tomorrow (Monday 13th Nov).

Administrator
Shoreham EGKA, United Kingdom

I’m planning on Le Touquet tomorrow (Monday).

Norman
United Kingdom

I am going too. EOBT 1000 UTC.

Administrator
Shoreham EGKA, United Kingdom

Just seen this …I’m off to Alderney at 1030 tomorrow from Shoreham.

Alex
Shoreham (EGKA) White Waltham (EGLM)

Not sure LFAT is possible today:

ILS RWY 13 U/S
DO NOT USE – WRONG INDICATIONS POSSIBLES : NOTAM LF/B6150/17

Administrator
Shoreham EGKA, United Kingdom

How about Dinard nice walk along the coast?

It’s such a shame we have to give 12hours notice for the Channel Islands. It makes impromptu trips difficult.

Hope you get off somewhere !

Alex
Shoreham (EGKA) White Waltham (EGLM)

I was joking about not being able to do LFAT when their ILS is INOP

LFAT 130730Z AUTO 01012KT 340V040 9999 FEW018 06/04 Q1022 TEMPO 34015G25KT
LFAT 130500Z 1306/1315 34013KT 9999 BKN020 TEMPO 1306/1310 34015G25KT

There are 2 or 3 planes going to LFAT today.

Administrator
Shoreham EGKA, United Kingdom

Nobody else here. I know one guy could not get fuel due to a broken pump at his base. Walking into town.

Administrator
Shoreham EGKA, United Kingdom

1 more coming…

Administrator
Shoreham EGKA, United Kingdom

Administrator
Shoreham EGKA, United Kingdom
Sign in to add your message

Back to Top